sensor_id;sensor_type;location;lat;lon;timestamp;P1;durP1;ratioP1;P2;durP2;ratioP2
20344;SDS011;10330;48.816;9.278;2023-03-19T00:00:13;12.02;;;5.13;;
20344;SDS011;10330;48.816;9.278;2023-03-19T00:02:40;14.35;;;5.60;;
20344;SDS011;10330;48.816;9.278;2023-03-19T00:05:06;9.55;;;4.95;;
20344;SDS011;10330;48.816;9.278;2023-03-19T00:07:33;9.98;;;5.25;;
20344;SDS011;10330;48.816;9.278;2023-03-19T00:09:59;15.93;;;5.78;;
20344;SDS011;10330;48.816;9.278;2023-03-19T00:12:25;7.95;;;5.25;;
20344;SDS011;10330;48.816;9.278;2023-03-19T00:14:51;20.25;;;9.07;;
20344;SDS011;10330;48.816;9.278;2023-03-19T00:17:18;28.42;;;12.95;;
20344;SDS011;10330;48.816;9.278;2023-03-19T00:19:44;11.32;;;5.80;;
20344;SDS011;10330;48.816;9.278;2023-03-19T00:22:10;11.80;;;5.05;;
20344;SDS011;10330;48.816;9.278;2023-03-19T00:24:36;16.15;;;5.18;;
20344;SDS011;10330;48.816;9.278;2023-03-19T00:27:02;9.48;;;4.88;;
20344;SDS011;10330;48.816;9.278;2023-03-19T00:29:29;6.85;;;4.63;;
20344;SDS011;10330;48.816;9.278;2023-03-19T00:31:55;11.98;;;4.13;;
20344;SDS011;10330;48.816;9.278;2023-03-19T00:34:25;10.55;;;4.05;;
20344;SDS011;10330;48.816;9.278;2023-03-19T00:57:33;10.80;;;4.50;;
20344;SDS011;10330;48.816;9.278;2023-03-19T01:01:15;6.00;;;3.70;;
20344;SDS011;10330;48.816;9.278;2023-03-19T01:03:45;12.15;;;5.05;;
20344;SDS011;10330;48.816;9.278;2023-03-19T01:06:12;9.70;;;4.32;;
20344;SDS011;10330;48.816;9.278;2023-03-19T01:08:38;8.25;;;4.03;;
20344;SDS011;10330;48.816;9.278;2023-03-19T01:11:09;5.18;;;3.53;;
20344;SDS011;10330;48.816;9.278;2023-03-19T01:13:37;6.32;;;4.20;;
20344;SDS011;10330;48.816;9.278;2023-03-19T01:16:04;9.18;;;5.22;;
20344;SDS011;10330;48.816;9.278;2023-03-19T01:18:31;5.85;;;4.03;;
20344;SDS011;10330;48.816;9.278;2023-03-19T01:20:58;15.10;;;5.00;;
20344;SDS011;10330;48.816;9.278;2023-03-19T01:23:26;10.07;;;4.32;;
20344;SDS011;10330;48.816;9.278;2023-03-19T01:25:53;9.05;;;4.28;;
20344;SDS011;10330;48.816;9.278;2023-03-19T01:28:19;7.68;;;5.25;;
20344;SDS011;10330;48.816;9.278;2023-03-19T01:30:47;8.50;;;4.03;;
20344;SDS011;10330;48.816;9.278;2023-03-19T01:33:24;8.23;;;4.50;;
20344;SDS011;10330;48.816;9.278;2023-03-19T01:35:58;10.23;;;4.43;;
20344;SDS011;10330;48.816;9.278;2023-03-19T01:38:34;9.27;;;4.53;;
20344;SDS011;10330;48.816;9.278;2023-03-19T01:41:04;8.40;;;4.55;;
20344;SDS011;10330;48.816;9.278;2023-03-19T01:43:31;51.05;;;19.40;;
20344;SDS011;10330;48.816;9.278;2023-03-19T01:46:29;12.95;;;5.65;;
20344;SDS011;10330;48.816;9.278;2023-03-19T01:49:18;13.82;;;5.75;;
20344;SDS011;10330;48.816;9.278;2023-03-19T01:51:52;9.80;;;5.15;;
20344;SDS011;10330;48.816;9.278;2023-03-19T01:54:43;11.00;;;4.45;;
20344;SDS011;10330;48.816;9.278;2023-03-19T01:57:39;14.48;;;4.80;;
20344;SDS011;10330;48.816;9.278;2023-03-19T02:00:05;11.00;;;5.40;;
20344;SDS011;10330;48.816;9.278;2023-03-19T02:02:46;19.05;;;6.30;;
20344;SDS011;10330;48.816;9.278;2023-03-19T02:05:36;14.15;;;5.65;;
20344;SDS011;10330;48.816;9.278;2023-03-19T02:08:08;11.18;;;6.05;;
20344;SDS011;10330;48.816;9.278;2023-03-19T02:10:39;14.27;;;5.50;;
20344;SDS011;10330;48.816;9.278;2023-03-19T02:13:06;15.07;;;5.35;;
20344;SDS011;10330;48.816;9.278;2023-03-19T02:15:33;6.30;;;3.97;;
20344;SDS011;10330;48.816;9.278;2023-03-19T02:17:59;7.25;;;4.30;;
20344;SDS011;10330;48.816;9.278;2023-03-19T02:20:29;5.90;;;3.85;;
20344;SDS011;10330;48.816;9.278;2023-03-19T02:26:05;7.72;;;4.22;;
20344;SDS011;10330;48.816;9.278;2023-03-19T02:28:49;6.50;;;3.60;;
20344;SDS011;10330;48.816;9.278;2023-03-19T02:31:21;7.47;;;4.30;;
20344;SDS011;10330;48.816;9.278;2023-03-19T02:36:25;9.70;;;3.97;;
20344;SDS011;10330;48.816;9.278;2023-03-19T02:38:56;10.57;;;4.25;;
20344;SDS011;10330;48.816;9.278;2023-03-19T02:41:26;7.93;;;4.72;;
20344;SDS011;10330;48.816;9.278;2023-03-19T02:43:54;11.80;;;4.07;;
20344;SDS011;10330;48.816;9.278;2023-03-19T02:46:22;8.10;;;4.35;;
20344;SDS011;10330;48.816;9.278;2023-03-19T02:48:49;7.00;;;3.63;;
20344;SDS011;10330;48.816;9.278;2023-03-19T02:51:15;9.23;;;3.90;;
20344;SDS011;10330;48.816;9.278;2023-03-19T02:53:42;8.70;;;3.15;;
20344;SDS011;10330;48.816;9.278;2023-03-19T02:56:08;4.97;;;2.88;;
20344;SDS011;10330;48.816;9.278;2023-03-19T02:58:35;4.60;;;2.90;;
20344;SDS011;10330;48.816;9.278;2023-03-19T03:01:01;10.20;;;4.03;;
20344;SDS011;10330;48.816;9.278;2023-03-19T03:03:27;4.68;;;3.33;;
20344;SDS011;10330;48.816;9.278;2023-03-19T03:05:54;7.05;;;3.95;;
20344;SDS011;10330;48.816;9.278;2023-03-19T03:08:21;5.80;;;4.15;;
20344;SDS011;10330;48.816;9.278;2023-03-19T03:10:47;6.38;;;4.45;;
20344;SDS011;10330;48.816;9.278;2023-03-19T03:13:14;10.35;;;4.18;;
20344;SDS011;10330;48.816;9.278;2023-03-19T03:15:40;8.27;;;4.38;;
20344;SDS011;10330;48.816;9.278;2023-03-19T03:18:07;7.35;;;4.18;;
20344;SDS011;10330;48.816;9.278;2023-03-19T03:20:33;12.82;;;4.47;;
20344;SDS011;10330;48.816;9.278;2023-03-19T03:22:59;6.93;;;4.18;;
20344;SDS011;10330;48.816;9.278;2023-03-19T03:25:27;11.45;;;4.03;;
20344;SDS011;10330;48.816;9.278;2023-03-19T03:27:54;10.20;;;4.38;;
20344;SDS011;10330;48.816;9.278;2023-03-19T03:30:20;12.45;;;3.97;;
20344;SDS011;10330;48.816;9.278;2023-03-19T03:32:46;6.80;;;3.67;;
20344;SDS011;10330;48.816;9.278;2023-03-19T03:35:13;7.20;;;4.18;;
20344;SDS011;10330;48.816;9.278;2023-03-19T03:37:46;3.90;;;3.50;;
20344;SDS011;10330;48.816;9.278;2023-03-19T03:40:13;4.97;;;3.42;;
20344;SDS011;10330;48.816;9.278;2023-03-19T03:42:40;9.02;;;3.72;;
20344;SDS011;10330;48.816;9.278;2023-03-19T03:45:08;8.95;;;3.85;;
20344;SDS011;10330;48.816;9.278;2023-03-19T03:47:36;6.03;;;3.50;;
20344;SDS011;10330;48.816;9.278;2023-03-19T03:50:03;9.23;;;3.53;;
20344;SDS011;10330;48.816;9.278;2023-03-19T03:52:30;6.47;;;3.47;;
20344;SDS011;10330;48.816;9.278;2023-03-19T03:54:59;4.90;;;3.92;;
20344;SDS011;10330;48.816;9.278;2023-03-19T03:57:25;4.32;;;3.72;;
20344;SDS011;10330;48.816;9.278;2023-03-19T03:59:54;3.92;;;3.03;;
20344;SDS011;10330;48.816;9.278;2023-03-19T04:02:20;6.82;;;3.55;;
20344;SDS011;10330;48.816;9.278;2023-03-19T04:04:46;7.78;;;3.63;;
20344;SDS011;10330;48.816;9.278;2023-03-19T04:07:13;5.60;;;3.42;;
20344;SDS011;10330;48.816;9.278;2023-03-19T04:09:44;5.35;;;3.47;;
20344;SDS011;10330;48.816;9.278;2023-03-19T04:12:11;7.90;;;3.85;;
20344;SDS011;10330;48.816;9.278;2023-03-19T04:14:41;5.50;;;3.58;;
20344;SDS011;10330;48.816;9.278;2023-03-19T04:17:08;6.65;;;4.05;;
20344;SDS011;10330;48.816;9.278;2023-03-19T04:19:35;4.80;;;3.58;;
20344;SDS011;10330;48.816;9.278;2023-03-19T04:22:01;8.75;;;4.43;;
20344;SDS011;10330;48.816;9.278;2023-03-19T04:24:29;14.05;;;3.95;;
20344;SDS011;10330;48.816;9.278;2023-03-19T04:26:58;12.93;;;4.15;;
20344;SDS011;10330;48.816;9.278;2023-03-19T04:29:25;7.60;;;3.65;;
20344;SDS011;10330;48.816;9.278;2023-03-19T04:31:52;8.02;;;3.75;;
20344;SDS011;10330;48.816;9.278;2023-03-19T04:34:18;8.25;;;3.78;;
20344;SDS011;10330;48.816;9.278;2023-03-19T04:36:45;13.38;;;4.07;;
20344;SDS011;10330;48.816;9.278;2023-03-19T04:39:12;6.72;;;3.95;;
20344;SDS011;10330;48.816;9.278;2023-03-19T04:41:38;7.45;;;4.65;;
20344;SDS011;10330;48.816;9.278;2023-03-19T04:44:21;4.35;;;3.95;;
20344;SDS011;10330;48.816;9.278;2023-03-19T04:46:48;5.13;;;3.90;;
20344;SDS011;10330;48.816;9.278;2023-03-19T04:49:16;4.22;;;3.50;;
20344;SDS011;10330;48.816;9.278;2023-03-19T04:51:44;5.65;;;3.72;;
20344;SDS011;10330;48.816;9.278;2023-03-19T04:54:11;4.15;;;3.15;;
20344;SDS011;10330;48.816;9.278;2023-03-19T04:56:37;5.32;;;3.25;;
20344;SDS011;10330;48.816;9.278;2023-03-19T04:59:04;7.40;;;3.67;;
20344;SDS011;10330;48.816;9.278;2023-03-19T05:01:31;5.75;;;3.85;;
20344;SDS011;10330;48.816;9.278;2023-03-19T05:04:04;4.32;;;3.47;;
20344;SDS011;10330;48.816;9.278;2023-03-19T05:06:34;5.05;;;3.95;;
20344;SDS011;10330;48.816;9.278;2023-03-19T05:09:01;7.20;;;3.45;;
20344;SDS011;10330;48.816;9.278;2023-03-19T05:11:28;4.97;;;2.85;;
20344;SDS011;10330;48.816;9.278;2023-03-19T05:14:03;6.50;;;3.55;;
20344;SDS011;10330;48.816;9.278;2023-03-19T05:16:45;4.95;;;3.55;;
20344;SDS011;10330;48.816;9.278;2023-03-19T05:19:11;3.75;;;3.22;;
20344;SDS011;10330;48.816;9.278;2023-03-19T05:26:13;4.88;;;3.58;;
20344;SDS011;10330;48.816;9.278;2023-03-19T05:29:41;3.92;;;3.33;;
20344;SDS011;10330;48.816;9.278;2023-03-19T05:33:01;8.43;;;4.07;;
20344;SDS011;10330;48.816;9.278;2023-03-19T05:40:26;3.58;;;2.88;;
20344;SDS011;10330;48.816;9.278;2023-03-19T05:50:35;4.57;;;2.90;;
20344;SDS011;10330;48.816;9.278;2023-03-19T05:53:49;4.90;;;3.13;;
20344;SDS011;10330;48.816;9.278;2023-03-19T05:57:08;6.53;;;2.35;;
20344;SDS011;10330;48.816;9.278;2023-03-19T06:18:48;4.10;;;2.33;;
20344;SDS011;10330;48.816;9.278;2023-03-19T06:21:15;2.90;;;2.25;;
20344;SDS011;10330;48.816;9.278;2023-03-19T06:23:42;2.65;;;2.20;;
20344;SDS011;10330;48.816;9.278;2023-03-19T06:26:11;3.70;;;2.63;;
20344;SDS011;10330;48.816;9.278;2023-03-19T06:28:46;4.22;;;2.60;;
20344;SDS011;10330;48.816;9.278;2023-03-19T06:31:14;2.53;;;2.30;;
20344;SDS011;10330;48.816;9.278;2023-03-19T06:34:17;2.60;;;2.15;;
20344;SDS011;10330;48.816;9.278;2023-03-19T06:36:44;4.93;;;2.35;;
20344;SDS011;10330;48.816;9.278;2023-03-19T06:39:12;2.15;;;2.05;;
20344;SDS011;10330;48.816;9.278;2023-03-19T06:41:38;2.55;;;1.88;;
20344;SDS011;10330;48.816;9.278;2023-03-19T06:44:12;2.67;;;1.88;;
20344;SDS011;10330;48.816;9.278;2023-03-19T06:46:38;1.75;;;1.65;;
20344;SDS011;10330;48.816;9.278;2023-03-19T06:49:04;1.85;;;1.75;;
20344;SDS011;10330;48.816;9.278;2023-03-19T06:51:31;2.80;;;1.77;;
20344;SDS011;10330;48.816;9.278;2023-03-19T06:53:57;2.10;;;2.00;;
20344;SDS011;10330;48.816;9.278;2023-03-19T06:56:23;2.72;;;1.58;;
20344;SDS011;10330;48.816;9.278;2023-03-19T06:58:50;4.25;;;2.15;;
20344;SDS011;10330;48.816;9.278;2023-03-19T07:01:16;6.10;;;2.20;;
20344;SDS011;10330;48.816;9.278;2023-03-19T07:03:43;3.13;;;1.98;;
20344;SDS011;10330;48.816;9.278;2023-03-19T07:06:09;1.48;;;1.48;;
20344;SDS011;10330;48.816;9.278;2023-03-19T07:08:36;4.65;;;1.45;;
20344;SDS011;10330;48.816;9.278;2023-03-19T07:11:08;1.75;;;1.40;;
20344;SDS011;10330;48.816;9.278;2023-03-19T07:13:34;2.45;;;1.50;;
20344;SDS011;10330;48.816;9.278;2023-03-19T07:18:50;2.30;;;1.67;;
20344;SDS011;10330;48.816;9.278;2023-03-19T07:21:16;3.88;;;2.00;;
20344;SDS011;10330;48.816;9.278;2023-03-19T07:23:46;2.20;;;1.70;;
20344;SDS011;10330;48.816;9.278;2023-03-19T07:26:12;4.57;;;1.58;;
20344;SDS011;10330;48.816;9.278;2023-03-19T07:28:44;1.88;;;1.50;;
20344;SDS011;10330;48.816;9.278;2023-03-19T07:31:11;4.57;;;1.70;;
20344;SDS011;10330;48.816;9.278;2023-03-19T07:33:37;4.60;;;1.73;;
20344;SDS011;10330;48.816;9.278;2023-03-19T07:36:03;4.10;;;1.40;;
20344;SDS011;10330;48.816;9.278;2023-03-19T07:38:30;2.97;;;1.58;;
20344;SDS011;10330;48.816;9.278;2023-03-19T07:40:56;1.58;;;1.42;;
20344;SDS011;10330;48.816;9.278;2023-03-19T07:43:22;4.63;;;1.25;;
20344;SDS011;10330;48.816;9.278;2023-03-19T07:45:49;3.03;;;1.30;;
20344;SDS011;10330;48.816;9.278;2023-03-19T07:48:15;1.67;;;1.52;;
20344;SDS011;10330;48.816;9.278;2023-03-19T07:50:42;1.52;;;1.50;;
20344;SDS011;10330;48.816;9.278;2023-03-19T07:53:08;1.70;;;1.60;;
20344;SDS011;10330;48.816;9.278;2023-03-19T07:55:34;2.65;;;1.45;;
20344;SDS011;10330;48.816;9.278;2023-03-19T07:58:02;1.80;;;1.70;;
20344;SDS011;10330;48.816;9.278;2023-03-19T08:00:28;1.80;;;1.65;;
20344;SDS011;10330;48.816;9.278;2023-03-19T08:02:55;1.55;;;1.45;;
20344;SDS011;10330;48.816;9.278;2023-03-19T08:05:24;2.35;;;1.85;;
20344;SDS011;10330;48.816;9.278;2023-03-19T08:07:50;1.75;;;1.65;;
20344;SDS011;10330;48.816;9.278;2023-03-19T08:10:17;5.32;;;1.45;;
20344;SDS011;10330;48.816;9.278;2023-03-19T08:12:43;2.03;;;1.27;;
20344;SDS011;10330;48.816;9.278;2023-03-19T08:15:09;4.72;;;1.88;;
20344;SDS011;10330;48.816;9.278;2023-03-19T08:17:36;1.95;;;1.77;;
20344;SDS011;10330;48.816;9.278;2023-03-19T08:20:07;2.83;;;1.52;;
20344;SDS011;10330;48.816;9.278;2023-03-19T08:22:36;4.55;;;2.72;;
20344;SDS011;10330;48.816;9.278;2023-03-19T08:25:03;4.18;;;1.55;;
20344;SDS011;10330;48.816;9.278;2023-03-19T08:27:31;2.45;;;1.95;;
20344;SDS011;10330;48.816;9.278;2023-03-19T08:30:00;3.83;;;1.27;;
20344;SDS011;10330;48.816;9.278;2023-03-19T08:32:28;2.10;;;1.50;;
20344;SDS011;10330;48.816;9.278;2023-03-19T08:34:55;1.80;;;1.67;;
20344;SDS011;10330;48.816;9.278;2023-03-19T08:37:21;1.50;;;1.50;;
20344;SDS011;10330;48.816;9.278;2023-03-19T08:39:50;1.55;;;1.27;;
20344;SDS011;10330;48.816;9.278;2023-03-19T08:42:17;1.27;;;1.27;;
20344;SDS011;10330;48.816;9.278;2023-03-19T08:44:44;5.03;;;1.40;;
20344;SDS011;10330;48.816;9.278;2023-03-19T08:47:17;1.23;;;1.20;;
20344;SDS011;10330;48.816;9.278;2023-03-19T08:49:44;1.50;;;1.40;;
20344;SDS011;10330;48.816;9.278;2023-03-19T08:52:11;3.15;;;1.88;;
20344;SDS011;10330;48.816;9.278;2023-03-19T08:54:37;1.33;;;1.27;;
20344;SDS011;10330;48.816;9.278;2023-03-19T08:57:03;6.22;;;3.20;;
20344;SDS011;10330;48.816;9.278;2023-03-19T08:59:30;6.10;;;3.65;;
20344;SDS011;10330;48.816;9.278;2023-03-19T09:01:56;2.45;;;2.15;;
20344;SDS011;10330;48.816;9.278;2023-03-19T09:04:23;4.68;;;1.65;;
20344;SDS011;10330;48.816;9.278;2023-03-19T09:06:49;2.20;;;1.23;;
20344;SDS011;10330;48.816;9.278;2023-03-19T09:09:17;3.95;;;1.20;;
20344;SDS011;10330;48.816;9.278;2023-03-19T09:11:43;2.38;;;1.40;;
20344;SDS011;10330;48.816;9.278;2023-03-19T09:14:11;1.77;;;1.25;;
20344;SDS011;10330;48.816;9.278;2023-03-19T09:16:38;1.33;;;1.33;;
20344;SDS011;10330;48.816;9.278;2023-03-19T09:19:07;3.85;;;2.47;;
20344;SDS011;10330;48.816;9.278;2023-03-19T09:21:34;2.50;;;1.55;;
20344;SDS011;10330;48.816;9.278;2023-03-19T09:24:01;1.55;;;1.45;;
20344;SDS011;10330;48.816;9.278;2023-03-19T09:26:28;2.63;;;1.60;;
20344;SDS011;10330;48.816;9.278;2023-03-19T09:28:56;1.90;;;1.30;;
20344;SDS011;10330;48.816;9.278;2023-03-19T09:31:23;5.00;;;1.30;;
20344;SDS011;10330;48.816;9.278;2023-03-19T09:33:50;2.78;;;2.45;;
20344;SDS011;10330;48.816;9.278;2023-03-19T09:36:16;2.63;;;1.33;;
20344;SDS011;10330;48.816;9.278;2023-03-19T09:38:42;4.85;;;1.45;;
20344;SDS011;10330;48.816;9.278;2023-03-19T09:41:12;1.40;;;1.25;;
20344;SDS011;10330;48.816;9.278;2023-03-19T09:46:53;1.10;;;1.10;;
20344;SDS011;10330;48.816;9.278;2023-03-19T09:49:42;1.77;;;1.63;;
20344;SDS011;10330;48.816;9.278;2023-03-19T09:54:41;2.33;;;1.67;;
20344;SDS011;10330;48.816;9.278;2023-03-19T09:57:10;1.73;;;1.50;;
20344;SDS011;10330;48.816;9.278;2023-03-19T09:59:38;3.42;;;1.65;;
20344;SDS011;10330;48.816;9.278;2023-03-19T10:16:04;1.67;;;1.45;;
20344;SDS011;10330;48.816;9.278;2023-03-19T10:18:35;2.28;;;1.38;;
20344;SDS011;10330;48.816;9.278;2023-03-19T10:26:30;4.63;;;2.22;;
20344;SDS011;10330;48.816;9.278;2023-03-19T10:29:07;3.17;;;2.17;;
20344;SDS011;10330;48.816;9.278;2023-03-19T10:31:54;3.30;;;1.60;;
20344;SDS011;10330;48.816;9.278;2023-03-19T10:34:32;2.70;;;1.70;;
20344;SDS011;10330;48.816;9.278;2023-03-19T10:39:47;9.55;;;3.78;;
20344;SDS011;10330;48.816;9.278;2023-03-19T10:42:18;3.97;;;2.03;;
20344;SDS011;10330;48.816;9.278;2023-03-19T10:44:51;2.80;;;1.90;;
20344;SDS011;10330;48.816;9.278;2023-03-19T10:47:25;3.33;;;1.55;;
20344;SDS011;10330;48.816;9.278;2023-03-19T10:49:52;6.95;;;2.10;;
20344;SDS011;10330;48.816;9.278;2023-03-19T10:52:26;4.18;;;2.10;;
20344;SDS011;10330;48.816;9.278;2023-03-19T10:54:56;7.03;;;2.78;;
20344;SDS011;10330;48.816;9.278;2023-03-19T10:57:37;3.30;;;1.88;;
20344;SDS011;10330;48.816;9.278;2023-03-19T11:00:14;3.47;;;2.25;;
20344;SDS011;10330;48.816;9.278;2023-03-19T11:02:48;3.00;;;2.13;;
20344;SDS011;10330;48.816;9.278;2023-03-19T11:05:22;3.58;;;2.10;;
20344;SDS011;10330;48.816;9.278;2023-03-19T11:07:54;1.67;;;1.58;;
20344;SDS011;10330;48.816;9.278;2023-03-19T11:10:23;3.55;;;1.88;;
20344;SDS011;10330;48.816;9.278;2023-03-19T11:12:53;4.10;;;2.03;;
20344;SDS011;10330;48.816;9.278;2023-03-19T11:15:23;2.83;;;1.75;;
20344;SDS011;10330;48.816;9.278;2023-03-19T11:18:05;1.90;;;1.55;;
20344;SDS011;10330;48.816;9.278;2023-03-19T11:20:35;4.63;;;2.08;;
20344;SDS011;10330;48.816;9.278;2023-03-19T11:23:10;6.57;;;2.15;;
20344;SDS011;10330;48.816;9.278;2023-03-19T11:25:41;4.60;;;1.60;;
20344;SDS011;10330;48.816;9.278;2023-03-19T11:28:13;5.68;;;3.58;;
20344;SDS011;10330;48.816;9.278;2023-03-19T11:33:44;4.82;;;1.70;;
20344;SDS011;10330;48.816;9.278;2023-03-19T11:39:27;5.88;;;2.60;;
20344;SDS011;10330;48.816;9.278;2023-03-19T11:47:41;4.05;;;1.50;;
20344;SDS011;10330;48.816;9.278;2023-03-19T11:50:27;3.08;;;1.63;;
20344;SDS011;10330;48.816;9.278;2023-03-19T11:53:10;1.95;;;1.02;;
20344;SDS011;10330;48.816;9.278;2023-03-19T11:55:56;2.17;;;1.40;;
20344;SDS011;10330;48.816;9.278;2023-03-19T11:58:27;1.92;;;1.80;;
20344;SDS011;10330;48.816;9.278;2023-03-19T12:01:22;1.60;;;1.50;;
20344;SDS011;10330;48.816;9.278;2023-03-19T12:15:47;4.60;;;2.33;;
20344;SDS011;10330;48.816;9.278;2023-03-19T12:23:42;2.78;;;1.48;;
20344;SDS011;10330;48.816;9.278;2023-03-19T12:26:34;1.40;;;1.30;;
20344;SDS011;10330;48.816;9.278;2023-03-19T12:34:52;1.63;;;1.25;;
20344;SDS011;10330;48.816;9.278;2023-03-19T12:37:37;1.05;;;1.05;;
20344;SDS011;10330;48.816;9.278;2023-03-19T12:43:03;1.23;;;1.15;;
20344;SDS011;10330;48.816;9.278;2023-03-19T12:45:41;3.08;;;1.48;;
20344;SDS011;10330;48.816;9.278;2023-03-19T12:48:12;3.28;;;1.70;;
20344;SDS011;10330;48.816;9.278;2023-03-19T12:50:46;2.88;;;1.40;;
20344;SDS011;10330;48.816;9.278;2023-03-19T12:56:05;1.75;;;1.33;;
20344;SDS011;10330;48.816;9.278;2023-03-19T13:01:49;4.80;;;1.33;;
20344;SDS011;10330;48.816;9.278;2023-03-19T13:04:22;4.00;;;1.20;;
20344;SDS011;10330;48.816;9.278;2023-03-19T13:06:54;6.10;;;1.65;;
20344;SDS011;10330;48.816;9.278;2023-03-19T13:12:19;3.65;;;1.58;;
20344;SDS011;10330;48.816;9.278;2023-03-19T13:23:24;5.20;;;1.98;;
20344;SDS011;10330;48.816;9.278;2023-03-19T13:25:55;1.77;;;1.65;;
20344;SDS011;10330;48.816;9.278;2023-03-19T13:28:30;1.70;;;1.60;;
20344;SDS011;10330;48.816;9.278;2023-03-19T13:31:00;4.25;;;1.70;;
20344;SDS011;10330;48.816;9.278;2023-03-19T13:33:29;1.77;;;1.63;;
20344;SDS011;10330;48.816;9.278;2023-03-19T13:35:56;2.05;;;1.58;;
20344;SDS011;10330;48.816;9.278;2023-03-19T13:38:26;4.63;;;2.03;;
20344;SDS011;10330;48.816;9.278;2023-03-19T13:40:59;4.75;;;2.22;;
20344;SDS011;10330;48.816;9.278;2023-03-19T13:53:41;4.55;;;1.55;;
20344;SDS011;10330;48.816;9.278;2023-03-19T14:02:00;5.28;;;2.85;;
20344;SDS011;10330;48.816;9.278;2023-03-19T14:04:49;2.35;;;1.95;;
20344;SDS011;10330;48.816;9.278;2023-03-19T14:07:23;4.90;;;2.15;;
20344;SDS011;10330;48.816;9.278;2023-03-19T14:14:58;3.53;;;2.08;;
20344;SDS011;10330;48.816;9.278;2023-03-19T14:17:44;2.08;;;1.88;;
20344;SDS011;10330;48.816;9.278;2023-03-19T14:36:54;2.13;;;1.67;;
20344;SDS011;10330;48.816;9.278;2023-03-19T14:39:32;2.85;;;1.80;;
20344;SDS011;10330;48.816;9.278;2023-03-19T14:42:04;1.13;;;1.10;;
20344;SDS011;10330;48.816;9.278;2023-03-19T14:55:15;6.05;;;3.20;;
20344;SDS011;10330;48.816;9.278;2023-03-19T14:57:42;6.35;;;3.10;;
20344;SDS011;10330;48.816;9.278;2023-03-19T15:00:12;2.60;;;2.35;;
20344;SDS011;10330;48.816;9.278;2023-03-19T15:02:41;4.82;;;2.33;;
20344;SDS011;10330;48.816;9.278;2023-03-19T15:05:13;1.83;;;1.40;;
20344;SDS011;10330;48.816;9.278;2023-03-19T15:07:45;2.28;;;1.58;;
20344;SDS011;10330;48.816;9.278;2023-03-19T15:10:15;2.33;;;2.13;;
20344;SDS011;10330;48.816;9.278;2023-03-19T15:15:39;2.45;;;2.25;;
20344;SDS011;10330;48.816;9.278;2023-03-19T15:18:14;13.60;;;3.85;;
20344;SDS011;10330;48.816;9.278;2023-03-19T15:20:41;3.03;;;2.13;;
20344;SDS011;10330;48.816;9.278;2023-03-19T15:23:12;19.58;;;7.57;;
20344;SDS011;10330;48.816;9.278;2023-03-19T15:25:50;11.20;;;4.75;;
20344;SDS011;10330;48.816;9.278;2023-03-19T15:28:22;7.93;;;3.80;;
20344;SDS011;10330;48.816;9.278;2023-03-19T15:30:58;7.75;;;4.13;;
20344;SDS011;10330;48.816;9.278;2023-03-19T15:41:27;7.28;;;4.35;;
20344;SDS011;10330;48.816;9.278;2023-03-19T15:43:56;5.20;;;3.17;;
20344;SDS011;10330;48.816;9.278;2023-03-19T15:46:30;11.73;;;3.55;;
20344;SDS011;10330;48.816;9.278;2023-03-19T15:52:01;2.63;;;2.13;;
20344;SDS011;10330;48.816;9.278;2023-03-19T15:54:30;3.78;;;2.33;;
20344;SDS011;10330;48.816;9.278;2023-03-19T15:56:57;3.05;;;1.55;;
20344;SDS011;10330;48.816;9.278;2023-03-19T15:59:25;3.22;;;2.35;;
20344;SDS011;10330;48.816;9.278;2023-03-19T16:02:01;8.00;;;3.03;;
20344;SDS011;10330;48.816;9.278;2023-03-19T16:04:28;5.53;;;3.50;;
20344;SDS011;10330;48.816;9.278;2023-03-19T16:06:57;2.92;;;2.25;;
20344;SDS011;10330;48.816;9.278;2023-03-19T16:09:30;3.55;;;2.25;;
20344;SDS011;10330;48.816;9.278;2023-03-19T16:11:58;8.85;;;4.18;;
20344;SDS011;10330;48.816;9.278;2023-03-19T16:17:08;5.82;;;2.60;;
20344;SDS011;10330;48.816;9.278;2023-03-19T16:19:37;4.57;;;1.95;;
20344;SDS011;10330;48.816;9.278;2023-03-19T16:22:16;2.75;;;2.15;;
20344;SDS011;10330;48.816;9.278;2023-03-19T16:24:45;2.53;;;1.83;;
20344;SDS011;10330;48.816;9.278;2023-03-19T16:27:17;3.63;;;2.13;;
20344;SDS011;10330;48.816;9.278;2023-03-19T16:29:47;4.40;;;4.03;;
20344;SDS011;10330;48.816;9.278;2023-03-19T16:32:21;2.35;;;2.10;;
20344;SDS011;10330;48.816;9.278;2023-03-19T16:34:53;3.03;;;2.22;;
20344;SDS011;10330;48.816;9.278;2023-03-19T16:47:45;7.10;;;2.47;;
20344;SDS011;10330;48.816;9.278;2023-03-19T16:50:24;2.55;;;2.25;;
20344;SDS011;10330;48.816;9.278;2023-03-19T16:52:54;17.85;;;7.53;;
20344;SDS011;10330;48.816;9.278;2023-03-19T16:55:22;9.85;;;4.38;;
20344;SDS011;10330;48.816;9.278;2023-03-19T16:58:06;4.70;;;3.20;;
20344;SDS011;10330;48.816;9.278;2023-03-19T17:00:33;3.10;;;2.60;;
20344;SDS011;10330;48.816;9.278;2023-03-19T17:03:00;7.45;;;3.40;;
20344;SDS011;10330;48.816;9.278;2023-03-19T17:05:26;3.45;;;1.80;;
20344;SDS011;10330;48.816;9.278;2023-03-19T17:07:53;2.35;;;2.17;;
20344;SDS011;10330;48.816;9.278;2023-03-19T17:10:20;4.20;;;2.10;;
20344;SDS011;10330;48.816;9.278;2023-03-19T17:12:51;2.38;;;2.17;;
20344;SDS011;10330;48.816;9.278;2023-03-19T17:15:34;2.25;;;2.05;;
20344;SDS011;10330;48.816;9.278;2023-03-19T17:18:08;4.53;;;2.33;;
20344;SDS011;10330;48.816;9.278;2023-03-19T17:20:45;3.03;;;2.20;;
20344;SDS011;10330;48.816;9.278;2023-03-19T17:23:17;1.92;;;1.80;;
20344;SDS011;10330;48.816;9.278;2023-03-19T17:25:44;3.17;;;1.92;;
20344;SDS011;10330;48.816;9.278;2023-03-19T17:28:10;2.10;;;1.90;;
20344;SDS011;10330;48.816;9.278;2023-03-19T17:30:37;8.60;;;4.68;;
20344;SDS011;10330;48.816;9.278;2023-03-19T17:33:03;14.45;;;6.93;;
20344;SDS011;10330;48.816;9.278;2023-03-19T17:35:30;6.38;;;3.90;;
20344;SDS011;10330;48.816;9.278;2023-03-19T17:37:59;2.33;;;2.13;;
20344;SDS011;10330;48.816;9.278;2023-03-19T17:40:26;17.63;;;10.63;;
20344;SDS011;10330;48.816;9.278;2023-03-19T17:42:53;43.13;;;19.88;;
20344;SDS011;10330;48.816;9.278;2023-03-19T17:45:22;45.97;;;23.17;;
20344;SDS011;10330;48.816;9.278;2023-03-19T17:47:52;8.68;;;5.10;;
20344;SDS011;10330;48.816;9.278;2023-03-19T17:50:24;2.53;;;2.33;;
20344;SDS011;10330;48.816;9.278;2023-03-19T17:52:53;4.38;;;2.50;;
20344;SDS011;10330;48.816;9.278;2023-03-19T17:55:21;7.07;;;2.72;;
20344;SDS011;10330;48.816;9.278;2023-03-19T17:57:53;1.98;;;1.88;;
20344;SDS011;10330;48.816;9.278;2023-03-19T18:00:21;3.22;;;2.47;;
20344;SDS011;10330;48.816;9.278;2023-03-19T18:02:50;3.90;;;2.35;;
20344;SDS011;10330;48.816;9.278;2023-03-19T18:05:19;3.20;;;2.78;;
20344;SDS011;10330;48.816;9.278;2023-03-19T18:07:48;8.38;;;3.50;;
20344;SDS011;10330;48.816;9.278;2023-03-19T18:10:19;4.35;;;3.30;;
20344;SDS011;10330;48.816;9.278;2023-03-19T18:12:48;6.75;;;3.67;;
20344;SDS011;10330;48.816;9.278;2023-03-19T18:15:14;9.73;;;3.20;;
20344;SDS011;10330;48.816;9.278;2023-03-19T18:17:42;12.95;;;5.55;;
20344;SDS011;10330;48.816;9.278;2023-03-19T18:20:15;5.22;;;4.30;;
20344;SDS011;10330;48.816;9.278;2023-03-19T18:22:44;5.93;;;3.85;;
20344;SDS011;10330;48.816;9.278;2023-03-19T18:25:15;10.18;;;5.22;;
20344;SDS011;10330;48.816;9.278;2023-03-19T18:27:43;6.95;;;4.68;;
20344;SDS011;10330;48.816;9.278;2023-03-19T18:30:10;4.68;;;3.50;;
20344;SDS011;10330;48.816;9.278;2023-03-19T18:32:39;4.75;;;3.50;;
20344;SDS011;10330;48.816;9.278;2023-03-19T18:35:18;7.30;;;3.95;;
20344;SDS011;10330;48.816;9.278;2023-03-19T18:37:55;3.63;;;3.28;;
20344;SDS011;10330;48.816;9.278;2023-03-19T18:40:23;4.68;;;3.63;;
20344;SDS011;10330;48.816;9.278;2023-03-19T18:42:51;4.82;;;3.67;;
20344;SDS011;10330;48.816;9.278;2023-03-19T18:45:21;10.00;;;4.05;;
20344;SDS011;10330;48.816;9.278;2023-03-19T18:47:47;3.60;;;3.30;;
20344;SDS011;10330;48.816;9.278;2023-03-19T18:50:19;3.80;;;3.40;;